sensor_id;sensor_type;location;lat;lon;timestamp;temperature;humidity
10294;DHT22;5192;50.328;7.610;2023-06-22T00:00:11;21.10;78.40
10294;DHT22;5192;50.328;7.610;2023-06-22T00:02:38;21.00;84.00
10294;DHT22;5192;50.328;7.610;2023-06-22T00:05:05;20.90;87.30
10294;DHT22;5192;50.328;7.610;2023-06-22T00:07:32;20.90;90.50
10294;DHT22;5192;50.328;7.610;2023-06-22T00:09:58;20.80;92.40
10294;DHT22;5192;50.328;7.610;2023-06-22T00:12:26;20.80;95.50
10294;DHT22;5192;50.328;7.610;2023-06-22T00:14:52;20.70;98.10
10294;DHT22;5192;50.328;7.610;2023-06-22T00:17:19;20.70;99.90
10294;DHT22;5192;50.328;7.610;2023-06-22T00:19:47;20.60;99.90
10294;DHT22;5192;50.328;7.610;2023-06-22T00:22:14;20.50;99.90
10294;DHT22;5192;50.328;7.610;2023-06-22T00:24:41;20.40;99.90
10294;DHT22;5192;50.328;7.610;2023-06-22T00:27:09;20.40;99.90
10294;DHT22;5192;50.328;7.610;2023-06-22T00:29:36;20.30;99.90
10294;DHT22;5192;50.328;7.610;2023-06-22T00:32:02;20.30;99.90
10294;DHT22;5192;50.328;7.610;2023-06-22T00:34:31;20.30;99.90
10294;DHT22;5192;50.328;7.610;2023-06-22T00:36:57;20.30;99.90
10294;DHT22;5192;50.328;7.610;2023-06-22T00:39:24;20.30;99.90
10294;DHT22;5192;50.328;7.610;2023-06-22T00:41:52;20.30;99.90
10294;DHT22;5192;50.328;7.610;2023-06-22T00:44:21;20.20;99.90
10294;DHT22;5192;50.328;7.610;2023-06-22T00:46:48;20.20;99.90
10294;DHT22;5192;50.328;7.610;2023-06-22T00:49:15;20.20;99.90
10294;DHT22;5192;50.328;7.610;2023-06-22T00:51:42;20.10;99.90
10294;DHT22;5192;50.328;7.610;2023-06-22T00:54:14;20.10;99.90
10294;DHT22;5192;50.328;7.610;2023-06-22T00:56:42;20.10;99.90
10294;DHT22;5192;50.328;7.610;2023-06-22T00:59:10;20.10;99.90
10294;DHT22;5192;50.328;7.610;2023-06-22T01:01:40;20.10;99.90
10294;DHT22;5192;50.328;7.610;2023-06-22T01:04:09;20.10;99.90
10294;DHT22;5192;50.328;7.610;2023-06-22T01:06:47;20.00;99.90
10294;DHT22;5192;50.328;7.610;2023-06-22T01:09:27;20.00;97.80
10294;DHT22;5192;50.328;7.610;2023-06-22T01:12:04;20.10;98.30
10294;DHT22;5192;50.328;7.610;2023-06-22T01:14:45;20.00;99.90
10294;DHT22;5192;50.328;7.610;2023-06-22T01:17:16;20.00;99.90
10294;DHT22;5192;50.328;7.610;2023-06-22T01:19:51;20.00;99.90
10294;DHT22;5192;50.328;7.610;2023-06-22T01:22:30;20.00;99.90
10294;DHT22;5192;50.328;7.610;2023-06-22T01:26:08;19.90;99.90
10294;DHT22;5192;50.328;7.610;2023-06-22T01:28:41;20.00;99.90
10294;DHT22;5192;50.328;7.610;2023-06-22T01:31:08;19.90;99.90
10294;DHT22;5192;50.328;7.610;2023-06-22T01:33:41;19.90;99.90
10294;DHT22;5192;50.328;7.610;2023-06-22T01:36:09;19.90;99.90
10294;DHT22;5192;50.328;7.610;2023-06-22T01:38:37;19.90;99.90
10294;DHT22;5192;50.328;7.610;2023-06-22T01:41:04;19.90;99.90
10294;DHT22;5192;50.328;7.610;2023-06-22T01:43:32;19.80;99.90
10294;DHT22;5192;50.328;7.610;2023-06-22T01:46:01;19.80;99.90
10294;DHT22;5192;50.328;7.610;2023-06-22T01:48:27;19.80;99.90
10294;DHT22;5192;50.328;7.610;2023-06-22T01:50:57;19.80;99.90
10294;DHT22;5192;50.328;7.610;2023-06-22T01:53:23;19.70;99.90
10294;DHT22;5192;50.328;7.610;2023-06-22T01:55:49;19.60;99.90
10294;DHT22;5192;50.328;7.610;2023-06-22T01:58:16;19.60;99.90
10294;DHT22;5192;50.328;7.610;2023-06-22T02:03:57;19.60;99.90
10294;DHT22;5192;50.328;7.610;2023-06-22T02:06:48;19.60;99.90
10294;DHT22;5192;50.328;7.610;2023-06-22T02:09:22;19.50;99.90
10294;DHT22;5192;50.328;7.610;2023-06-22T02:11:51;19.50;99.90
10294;DHT22;5192;50.328;7.610;2023-06-22T02:14:22;19.50;99.90
10294;DHT22;5192;50.328;7.610;2023-06-22T02:16:48;19.60;99.90
10294;DHT22;5192;50.328;7.610;2023-06-22T02:19:16;19.60;99.90
10294;DHT22;5192;50.328;7.610;2023-06-22T02:21:45;19.60;99.90
10294;DHT22;5192;50.328;7.610;2023-06-22T02:24:12;19.60;99.90
10294;DHT22;5192;50.328;7.610;2023-06-22T02:26:42;19.60;99.90
10294;DHT22;5192;50.328;7.610;2023-06-22T02:29:11;19.60;99.90
10294;DHT22;5192;50.328;7.610;2023-06-22T02:31:38;19.50;99.90
10294;DHT22;5192;50.328;7.610;2023-06-22T02:34:06;19.50;99.90
10294;DHT22;5192;50.328;7.610;2023-06-22T02:36:33;19.40;99.90
10294;DHT22;5192;50.328;7.610;2023-06-22T02:39:00;19.40;99.90
10294;DHT22;5192;50.328;7.610;2023-06-22T02:41:28;19.40;99.90
10294;DHT22;5192;50.328;7.610;2023-06-22T02:43:56;19.30;99.90
10294;DHT22;5192;50.328;7.610;2023-06-22T02:46:23;19.30;99.90
10294;DHT22;5192;50.328;7.610;2023-06-22T02:48:51;19.30;99.90
10294;DHT22;5192;50.328;7.610;2023-06-22T02:51:17;19.30;99.90
10294;DHT22;5192;50.328;7.610;2023-06-22T02:53:44;19.30;99.90
10294;DHT22;5192;50.328;7.610;2023-06-22T02:56:12;19.30;99.90
10294;DHT22;5192;50.328;7.610;2023-06-22T02:58:39;19.30;99.90
10294;DHT22;5192;50.328;7.610;2023-06-22T03:01:06;19.20;99.90
10294;DHT22;5192;50.328;7.610;2023-06-22T03:03:33;19.30;99.90
10294;DHT22;5192;50.328;7.610;2023-06-22T03:06:00;19.30;99.90
10294;DHT22;5192;50.328;7.610;2023-06-22T03:08:31;19.30;99.90
10294;DHT22;5192;50.328;7.610;2023-06-22T03:10:57;19.30;99.90
10294;DHT22;5192;50.328;7.610;2023-06-22T03:13:23;19.30;99.90
10294;DHT22;5192;50.328;7.610;2023-06-22T03:15:50;19.30;99.90
10294;DHT22;5192;50.328;7.610;2023-06-22T03:18:17;19.30;99.90
10294;DHT22;5192;50.328;7.610;2023-06-22T03:20:43;19.40;99.90
10294;DHT22;5192;50.328;7.610;2023-06-22T03:23:10;19.40;99.90
10294;DHT22;5192;50.328;7.610;2023-06-22T03:25:37;19.40;99.90
10294;DHT22;5192;50.328;7.610;2023-06-22T03:28:05;19.40;99.90
10294;DHT22;5192;50.328;7.610;2023-06-22T03:30:33;19.30;99.90
10294;DHT22;5192;50.328;7.610;2023-06-22T03:33:00;19.30;99.90
10294;DHT22;5192;50.328;7.610;2023-06-22T03:35:26;19.20;99.90
10294;DHT22;5192;50.328;7.610;2023-06-22T03:37:53;19.20;99.90
10294;DHT22;5192;50.328;7.610;2023-06-22T03:40:20;19.20;99.90
10294;DHT22;5192;50.328;7.610;2023-06-22T03:42:47;19.20;99.90
10294;DHT22;5192;50.328;7.610;2023-06-22T03:45:13;19.20;99.90
10294;DHT22;5192;50.328;7.610;2023-06-22T03:47:40;19.10;99.90
10294;DHT22;5192;50.328;7.610;2023-06-22T03:50:08;19.10;99.90
10294;DHT22;5192;50.328;7.610;2023-06-22T03:52:35;19.00;99.90
10294;DHT22;5192;50.328;7.610;2023-06-22T03:55:01;19.00;99.90
10294;DHT22;5192;50.328;7.610;2023-06-22T03:57:28;19.00;99.90
10294;DHT22;5192;50.328;7.610;2023-06-22T03:59:58;19.00;99.90
10294;DHT22;5192;50.328;7.610;2023-06-22T04:02:26;19.00;99.90
10294;DHT22;5192;50.328;7.610;2023-06-22T04:04:52;19.00;99.90
10294;DHT22;5192;50.328;7.610;2023-06-22T04:07:20;19.00;99.90
10294;DHT22;5192;50.328;7.610;2023-06-22T04:09:47;19.00;99.90
10294;DHT22;5192;50.328;7.610;2023-06-22T04:12:14;19.00;99.90
10294;DHT22;5192;50.328;7.610;2023-06-22T04:14:41;19.00;99.90
10294;DHT22;5192;50.328;7.610;2023-06-22T04:17:08;19.00;99.90
10294;DHT22;5192;50.328;7.610;2023-06-22T04:19:35;19.00;99.90
10294;DHT22;5192;50.328;7.610;2023-06-22T04:22:02;19.00;99.90
10294;DHT22;5192;50.328;7.610;2023-06-22T04:24:30;19.00;99.90
10294;DHT22;5192;50.328;7.610;2023-06-22T04:26:57;19.00;99.90
10294;DHT22;5192;50.328;7.610;2023-06-22T04:29:26;19.00;99.90
10294;DHT22;5192;50.328;7.610;2023-06-22T04:31:58;19.00;99.90
10294;DHT22;5192;50.328;7.610;2023-06-22T04:34:28;19.00;99.90
10294;DHT22;5192;50.328;7.610;2023-06-22T04:36:59;19.00;99.90
10294;DHT22;5192;50.328;7.610;2023-06-22T04:39:27;19.00;99.90
10294;DHT22;5192;50.328;7.610;2023-06-22T04:41:54;19.10;99.90
10294;DHT22;5192;50.328;7.610;2023-06-22T04:44:27;19.00;99.90
10294;DHT22;5192;50.328;7.610;2023-06-22T04:47:11;19.10;99.90
10294;DHT22;5192;50.328;7.610;2023-06-22T04:49:37;19.20;99.90
10294;DHT22;5192;50.328;7.610;2023-06-22T04:52:06;19.20;99.90
10294;DHT22;5192;50.328;7.610;2023-06-22T04:54:34;19.30;99.90
10294;DHT22;5192;50.328;7.610;2023-06-22T04:57:01;19.40;99.90
10294;DHT22;5192;50.328;7.610;2023-06-22T04:59:29;19.40;99.90
10294;DHT22;5192;50.328;7.610;2023-06-22T05:02:14;19.40;99.90
10294;DHT22;5192;50.328;7.610;2023-06-22T05:04:42;19.50;99.90
10294;DHT22;5192;50.328;7.610;2023-06-22T05:07:09;19.60;99.90
10294;DHT22;5192;50.328;7.610;2023-06-22T05:09:35;19.60;99.90
10294;DHT22;5192;50.328;7.610;2023-06-22T05:12:02;19.60;99.90
10294;DHT22;5192;50.328;7.610;2023-06-22T05:14:33;19.60;99.90
10294;DHT22;5192;50.328;7.610;2023-06-22T05:17:00;19.70;99.90
10294;DHT22;5192;50.328;7.610;2023-06-22T05:19:31;19.60;99.90
10294;DHT22;5192;50.328;7.610;2023-06-22T05:22:00;19.70;99.90
10294;DHT22;5192;50.328;7.610;2023-06-22T05:24:27;19.80;99.90
10294;DHT22;5192;50.328;7.610;2023-06-22T05:26:54;19.80;99.90
10294;DHT22;5192;50.328;7.610;2023-06-22T05:29:22;19.90;99.90
10294;DHT22;5192;50.328;7.610;2023-06-22T05:31:50;20.00;99.90
10294;DHT22;5192;50.328;7.610;2023-06-22T05:34:17;20.10;99.90
10294;DHT22;5192;50.328;7.610;2023-06-22T05:36:44;20.10;99.90
10294;DHT22;5192;50.328;7.610;2023-06-22T05:39:14;20.20;99.90
10294;DHT22;5192;50.328;7.610;2023-06-22T05:41:41;20.30;99.90
10294;DHT22;5192;50.328;7.610;2023-06-22T05:44:10;20.40;99.90
10294;DHT22;5192;50.328;7.610;2023-06-22T05:46:40;20.40;99.90
10294;DHT22;5192;50.328;7.610;2023-06-22T05:49:12;20.40;99.90
10294;DHT22;5192;50.328;7.610;2023-06-22T05:51:40;20.30;99.90
10294;DHT22;5192;50.328;7.610;2023-06-22T05:54:07;20.30;99.90
10294;DHT22;5192;50.328;7.610;2023-06-22T05:56:35;20.30;99.90
10294;DHT22;5192;50.328;7.610;2023-06-22T05:59:04;20.30;99.90
10294;DHT22;5192;50.328;7.610;2023-06-22T06:01:34;20.40;99.90
10294;DHT22;5192;50.328;7.610;2023-06-22T06:04:04;20.40;99.90
10294;DHT22;5192;50.328;7.610;2023-06-22T06:06:31;20.50;99.90
10294;DHT22;5192;50.328;7.610;2023-06-22T06:08:59;20.60;99.90
10294;DHT22;5192;50.328;7.610;2023-06-22T06:11:25;20.80;99.90
10294;DHT22;5192;50.328;7.610;2023-06-22T06:13:52;20.90;99.20
10294;DHT22;5192;50.328;7.610;2023-06-22T06:16:21;20.90;95.10
10294;DHT22;5192;50.328;7.610;2023-06-22T06:18:47;21.10;94.00
10294;DHT22;5192;50.328;7.610;2023-06-22T06:21:13;21.10;90.40
10294;DHT22;5192;50.328;7.610;2023-06-22T06:23:41;21.20;89.90
10294;DHT22;5192;50.328;7.610;2023-06-22T06:26:10;21.30;89.70
10294;DHT22;5192;50.328;7.610;2023-06-22T06:28:36;21.50;85.30
10294;DHT22;5192;50.328;7.610;2023-06-22T06:31:03;21.60;87.50
10294;DHT22;5192;50.328;7.610;2023-06-22T06:33:34;21.80;84.70
10294;DHT22;5192;50.328;7.610;2023-06-22T06:36:02;22.00;85.10
10294;DHT22;5192;50.328;7.610;2023-06-22T06:38:30;22.00;83.00
10294;DHT22;5192;50.328;7.610;2023-06-22T06:40:58;22.20;73.70
10294;DHT22;5192;50.328;7.610;2023-06-22T06:43:26;22.30;73.70
10294;DHT22;5192;50.328;7.610;2023-06-22T06:45:54;22.40;67.80
10294;DHT22;5192;50.328;7.610;2023-06-22T06:48:21;22.50;64.60
10294;DHT22;5192;50.328;7.610;2023-06-22T06:50:49;22.60;60.00
10294;DHT22;5192;50.328;7.610;2023-06-22T06:53:17;22.70;61.70
10294;DHT22;5192;50.328;7.610;2023-06-22T06:55:44;22.80;58.70
10294;DHT22;5192;50.328;7.610;2023-06-22T06:58:12;23.00;60.70
10294;DHT22;5192;50.328;7.610;2023-06-22T07:00:41;23.10;56.20
10294;DHT22;5192;50.328;7.610;2023-06-22T07:03:07;23.30;55.50
10294;DHT22;5192;50.328;7.610;2023-06-22T07:05:33;23.50;55.60
10294;DHT22;5192;50.328;7.610;2023-06-22T07:08:00;23.70;47.70
10294;DHT22;5192;50.328;7.610;2023-06-22T07:10:28;23.80;46.00
10294;DHT22;5192;50.328;7.610;2023-06-22T07:12:55;23.90;45.60
10294;DHT22;5192;50.328;7.610;2023-06-22T07:15:24;24.00;49.30
10294;DHT22;5192;50.328;7.610;2023-06-22T07:17:51;24.00;47.60
10294;DHT22;5192;50.328;7.610;2023-06-22T07:20:18;24.00;51.90
10294;DHT22;5192;50.328;7.610;2023-06-22T07:22:46;24.00;46.80
10294;DHT22;5192;50.328;7.610;2023-06-22T07:25:13;24.00;44.80
10294;DHT22;5192;50.328;7.610;2023-06-22T07:30:34;24.10;41.30
10294;DHT22;5192;50.328;7.610;2023-06-22T07:33:05;24.20;39.80
10294;DHT22;5192;50.328;7.610;2023-06-22T07:35:35;24.20;39.30
10294;DHT22;5192;50.328;7.610;2023-06-22T07:38:02;24.20;37.80
10294;DHT22;5192;50.328;7.610;2023-06-22T07:40:31;24.30;40.60
10294;DHT22;5192;50.328;7.610;2023-06-22T07:42:58;24.30;37.60
10294;DHT22;5192;50.328;7.610;2023-06-22T07:45:25;24.40;40.20
10294;DHT22;5192;50.328;7.610;2023-06-22T07:47:52;24.50;39.60
10294;DHT22;5192;50.328;7.610;2023-06-22T07:50:18;24.50;35.80
10294;DHT22;5192;50.328;7.610;2023-06-22T07:52:45;24.60;38.50
10294;DHT22;5192;50.328;7.610;2023-06-22T07:55:12;24.60;38.30
10294;DHT22;5192;50.328;7.610;2023-06-22T07:57:39;24.70;40.60
10294;DHT22;5192;50.328;7.610;2023-06-22T08:00:09;24.90;37.60
10294;DHT22;5192;50.328;7.610;2023-06-22T08:02:47;24.90;30.80
10294;DHT22;5192;50.328;7.610;2023-06-22T08:05:15;25.00;32.50
10294;DHT22;5192;50.328;7.610;2023-06-22T08:07:42;25.10;31.30
10294;DHT22;5192;50.328;7.610;2023-06-22T08:10:13;25.10;30.80
10294;DHT22;5192;50.328;7.610;2023-06-22T08:12:42;25.20;33.60
10294;DHT22;5192;50.328;7.610;2023-06-22T08:15:08;25.30;31.90
10294;DHT22;5192;50.328;7.610;2023-06-22T08:17:38;25.20;29.40
10294;DHT22;5192;50.328;7.610;2023-06-22T08:20:06;25.30;27.50
10294;DHT22;5192;50.328;7.610;2023-06-22T08:22:36;25.30;25.90
10294;DHT22;5192;50.328;7.610;2023-06-22T08:25:02;25.40;27.70
10294;DHT22;5192;50.328;7.610;2023-06-22T08:27:33;25.40;26.90
10294;DHT22;5192;50.328;7.610;2023-06-22T08:30:00;25.40;24.60
10294;DHT22;5192;50.328;7.610;2023-06-22T08:32:32;25.40;24.60
10294;DHT22;5192;50.328;7.610;2023-06-22T08:35:00;25.50;24.80
10294;DHT22;5192;50.328;7.610;2023-06-22T08:37:27;25.50;23.00
10294;DHT22;5192;50.328;7.610;2023-06-22T08:40:04;25.40;21.40
10294;DHT22;5192;50.328;7.610;2023-06-22T08:42:33;25.50;19.50
10294;DHT22;5192;50.328;7.610;2023-06-22T08:45:00;25.70;18.80
10294;DHT22;5192;50.328;7.610;2023-06-22T08:47:31;25.80;20.60
10294;DHT22;5192;50.328;7.610;2023-06-22T08:49:58;26.00;18.90
10294;DHT22;5192;50.328;7.610;2023-06-22T08:52:29;26.00;17.30
10294;DHT22;5192;50.328;7.610;2023-06-22T08:54:57;26.20;16.80
10294;DHT22;5192;50.328;7.610;2023-06-22T08:57:28;26.20;15.70
10294;DHT22;5192;50.328;7.610;2023-06-22T08:59:57;26.40;13.90
10294;DHT22;5192;50.328;7.610;2023-06-22T09:02:27;26.50;15.40
10294;DHT22;5192;50.328;7.610;2023-06-22T09:05:03;26.70;13.60
10294;DHT22;5192;50.328;7.610;2023-06-22T09:07:30;26.90;9.40
10294;DHT22;5192;50.328;7.610;2023-06-22T09:09:58;26.90;11.70
10294;DHT22;5192;50.328;7.610;2023-06-22T09:12:25;27.10;12.10
10294;DHT22;5192;50.328;7.610;2023-06-22T09:14:53;27.30;11.90
10294;DHT22;5192;50.328;7.610;2023-06-22T09:17:19;27.30;11.20
10294;DHT22;5192;50.328;7.610;2023-06-22T09:19:47;27.30;8.40
10294;DHT22;5192;50.328;7.610;2023-06-22T09:22:15;27.30;9.40
10294;DHT22;5192;50.328;7.610;2023-06-22T09:24:43;27.30;8.40
10294;DHT22;5192;50.328;7.610;2023-06-22T09:27:08;27.30;9.90
10294;DHT22;5192;50.328;7.610;2023-06-22T09:29:36;27.30;9.90
10294;DHT22;5192;50.328;7.610;2023-06-22T09:32:04;27.40;11.70
10294;DHT22;5192;50.328;7.610;2023-06-22T09:34:32;27.50;11.60
10294;DHT22;5192;50.328;7.610;2023-06-22T09:36:59;27.60;6.40
10294;DHT22;5192;50.328;7.610;2023-06-22T09:39:28;27.70;5.60
10294;DHT22;5192;50.328;7.610;2023-06-22T09:41:57;27.80;8.50
10294;DHT22;5192;50.328;7.610;2023-06-22T09:44:24;27.80;3.00
10294;DHT22;5192;50.328;7.610;2023-06-22T09:46:53;28.00;2.80
10294;DHT22;5192;50.328;7.610;2023-06-22T09:49:20;28.00;2.00
10294;DHT22;5192;50.328;7.610;2023-06-22T09:51:47;28.10;2.30
10294;DHT22;5192;50.328;7.610;2023-06-22T09:54:13;28.10;2.40
10294;DHT22;5192;50.328;7.610;2023-06-22T09:56:40;28.20;3.10
10294;DHT22;5192;50.328;7.610;2023-06-22T09:59:08;28.10;5.20
10294;DHT22;5192;50.328;7.610;2023-06-22T10:01:35;28.00;6.10
10294;DHT22;5192;50.328;7.610;2023-06-22T10:04:03;27.90;4.20
10294;DHT22;5192;50.328;7.610;2023-06-22T10:06:30;27.80;1.50
10294;DHT22;5192;50.328;7.610;2023-06-22T10:08:57;27.80;2.70
10294;DHT22;5192;50.328;7.610;2023-06-22T10:11:24;27.80;1.00
10294;DHT22;5192;50.328;7.610;2023-06-22T10:13:56;27.90;4.90
10294;DHT22;5192;50.328;7.610;2023-06-22T10:16:36;27.80;1.00
10294;DHT22;5192;50.328;7.610;2023-06-22T10:19:03;27.70;4.80
10294;DHT22;5192;50.328;7.610;2023-06-22T10:21:29;27.70;7.80
10294;DHT22;5192;50.328;7.610;2023-06-22T10:23:55;27.30;4.60
10294;DHT22;5192;50.328;7.610;2023-06-22T10:26:22;27.20;9.90
10294;DHT22;5192;50.328;7.610;2023-06-22T10:28:50;27.00;8.60
10294;DHT22;5192;50.328;7.610;2023-06-22T10:31:19;26.90;6.60
10294;DHT22;5192;50.328;7.610;2023-06-22T10:33:45;26.70;20.70
10294;DHT22;5192;50.328;7.610;2023-06-22T10:36:12;26.70;35.60
10294;DHT22;5192;50.328;7.610;2023-06-22T10:38:37;26.50;47.20
10294;DHT22;5192;50.328;7.610;2023-06-22T10:41:04;26.30;52.70
10294;DHT22;5192;50.328;7.610;2023-06-22T10:43:31;26.20;60.00
10294;DHT22;5192;50.328;7.610;2023-06-22T10:45:58;26.20;68.20
10294;DHT22;5192;50.328;7.610;2023-06-22T10:48:27;26.20;74.70
10294;DHT22;5192;50.328;7.610;2023-06-22T10:50:54;26.40;74.00
10294;DHT22;5192;50.328;7.610;2023-06-22T10:53:20;26.60;70.80
10294;DHT22;5192;50.328;7.610;2023-06-22T10:55:47;26.90;53.70
10294;DHT22;5192;50.328;7.610;2023-06-22T10:58:14;27.20;48.00
10294;DHT22;5192;50.328;7.610;2023-06-22T11:00:40;27.50;54.30
10294;DHT22;5192;50.328;7.610;2023-06-22T11:03:08;27.80;50.90
10294;DHT22;5192;50.328;7.610;2023-06-22T11:05:35;28.00;45.30
10294;DHT22;5192;50.328;7.610;2023-06-22T11:08:02;28.10;23.10
10294;DHT22;5192;50.328;7.610;2023-06-22T11:10:30;28.10;21.40
10294;DHT22;5192;50.328;7.610;2023-06-22T11:12:55;28.30;31.60
10294;DHT22;5192;50.328;7.610;2023-06-22T11:15:25;28.30;17.10
10294;DHT22;5192;50.328;7.610;2023-06-22T11:17:50;28.40;25.10
10294;DHT22;5192;50.328;7.610;2023-06-22T11:20:16;28.40;24.70
10294;DHT22;5192;50.328;7.610;2023-06-22T11:22:44;28.60;17.10
10294;DHT22;5192;50.328;7.610;2023-06-22T11:25:11;28.80;13.50
10294;DHT22;5192;50.328;7.610;2023-06-22T11:27:40;29.00;7.60
10294;DHT22;5192;50.328;7.610;2023-06-22T11:30:07;29.00;8.80
10294;DHT22;5192;50.328;7.610;2023-06-22T11:32:34;29.00;9.90
10294;DHT22;5192;50.328;7.610;2023-06-22T11:35:02;29.10;10.10
10294;DHT22;5192;50.328;7.610;2023-06-22T11:37:30;29.30;3.30
10294;DHT22;5192;50.328;7.610;2023-06-22T11:39:58;29.30;3.30
10294;DHT22;5192;50.328;7.610;2023-06-22T11:42:25;29.40;8.30
10294;DHT22;5192;50.328;7.610;2023-06-22T11:44:51;29.30;3.10
10294;DHT22;5192;50.328;7.610;2023-06-22T11:47:18;29.20;3.40
10294;DHT22;5192;50.328;7.610;2023-06-22T11:49:45;29.20;4.30
10294;DHT22;5192;50.328;7.610;2023-06-22T11:52:12;29.20;7.10
10294;DHT22;5192;50.328;7.610;2023-06-22T11:54:39;29.20;2.70
10294;DHT22;5192;50.328;7.610;2023-06-22T11:57:07;29.30;2.90
10294;DHT22;5192;50.328;7.610;2023-06-22T11:59:35;29.30;7.00
10294;DHT22;5192;50.328;7.610;2023-06-22T12:02:01;29.50;4.00
10294;DHT22;5192;50.328;7.610;2023-06-22T12:04:29;29.60;1.00
10294;DHT22;5192;50.328;7.610;2023-06-22T12:06:57;29.70;1.00
10294;DHT22;5192;50.328;7.610;2023-06-22T12:09:26;29.90;5.40
10294;DHT22;5192;50.328;7.610;2023-06-22T12:11:54;30.00;1.30
10294;DHT22;5192;50.328;7.610;2023-06-22T12:14:21;30.10;1.40
10294;DHT22;5192;50.328;7.610;2023-06-22T12:16:49;30.10;1.00
10294;DHT22;5192;50.328;7.610;2023-06-22T12:19:16;30.10;1.00
10294;DHT22;5192;50.328;7.610;2023-06-22T12:21:44;29.90;1.00
10294;DHT22;5192;50.328;7.610;2023-06-22T12:24:13;30.00;1.90
10294;DHT22;5192;50.328;7.610;2023-06-22T12:26:42;30.00;1.00
10294;DHT22;5192;50.328;7.610;2023-06-22T12:29:09;29.90;2.00
10294;DHT22;5192;50.328;7.610;2023-06-22T12:31:36;29.90;1.00
10294;DHT22;5192;50.328;7.610;2023-06-22T12:34:06;30.00;2.80
10294;DHT22;5192;50.328;7.610;2023-06-22T12:36:33;30.10;1.00
10294;DHT22;5192;50.328;7.610;2023-06-22T12:39:00;30.20;1.70
10294;DHT22;5192;50.328;7.610;2023-06-22T12:41:28;30.40;1.00
10294;DHT22;5192;50.328;7.610;2023-06-22T12:43:55;30.40;1.60
10294;DHT22;5192;50.328;7.610;2023-06-22T12:46:22;30.20;1.00
10294;DHT22;5192;50.328;7.610;2023-06-22T12:48:49;30.00;1.00
10294;DHT22;5192;50.328;7.610;2023-06-22T12:51:25;29.70;1.00
10294;DHT22;5192;50.328;7.610;2023-06-22T12:53:52;29.90;1.00
10294;DHT22;5192;50.328;7.610;2023-06-22T12:56:19;30.00;1.70
10294;DHT22;5192;50.328;7.610;2023-06-22T12:58:46;30.00;1.00
10294;DHT22;5192;50.328;7.610;2023-06-22T13:01:12;30.20;1.00
10294;DHT22;5192;50.328;7.610;2023-06-22T13:03:41;30.40;6.20
10294;DHT22;5192;50.328;7.610;2023-06-22T13:06:09;30.70;1.00
10294;DHT22;5192;50.328;7.610;2023-06-22T13:08:36;30.50;1.00
10294;DHT22;5192;50.328;7.610;2023-06-22T13:11:05;30.50;1.00
10294;DHT22;5192;50.328;7.610;2023-06-22T13:13:31;30.70;1.00
10294;DHT22;5192;50.328;7.610;2023-06-22T13:16:00;30.90;1.00
10294;DHT22;5192;50.328;7.610;2023-06-22T13:18:27;31.00;1.00
10294;DHT22;5192;50.328;7.610;2023-06-22T13:20:57;31.10;1.00
10294;DHT22;5192;50.328;7.610;2023-06-22T13:23:24;31.30;1.00
10294;DHT22;5192;50.328;7.610;2023-06-22T13:25:51;31.40;1.00
10294;DHT22;5192;50.328;7.610;2023-06-22T13:28:18;31.50;1.00
10294;DHT22;5192;50.328;7.610;2023-06-22T13:30:46;31.40;1.00
10294;DHT22;5192;50.328;7.610;2023-06-22T13:33:15;31.30;1.00
10294;DHT22;5192;50.328;7.610;2023-06-22T13:35:42;31.40;1.00
10294;DHT22;5192;50.328;7.610;2023-06-22T13:38:12;31.40;1.00
10294;DHT22;5192;50.328;7.610;2023-06-22T13:40:39;31.10;1.00
10294;DHT22;5192;50.328;7.610;2023-06-22T13:43:06;30.90;1.00
10294;DHT22;5192;50.328;7.610;2023-06-22T13:45:35;30.60;1.00
10294;DHT22;5192;50.328;7.610;2023-06-22T13:48:02;30.30;1.00
10294;DHT22;5192;50.328;7.610;2023-06-22T13:50:30;30.10;1.00
10294;DHT22;5192;50.328;7.610;2023-06-22T13:52:55;29.70;1.00
10294;DHT22;5192;50.328;7.610;2023-06-22T13:55:22;29.50;1.50
10294;DHT22;5192;50.328;7.610;2023-06-22T13:57:50;29.20;6.60
10294;DHT22;5192;50.328;7.610;2023-06-22T14:00:18;29.10;8.70
10294;DHT22;5192;50.328;7.610;2023-06-22T14:02:46;29.00;10.10
10294;DHT22;5192;50.328;7.610;2023-06-22T14:05:12;28.90;13.70
10294;DHT22;5192;50.328;7.610;2023-06-22T14:07:38;28.80;12.70
10294;DHT22;5192;50.328;7.610;2023-06-22T14:10:05;28.70;16.40
10294;DHT22;5192;50.328;7.610;2023-06-22T14:12:33;28.60;12.40
10294;DHT22;5192;50.328;7.610;2023-06-22T14:15:01;28.40;17.40
10294;DHT22;5192;50.328;7.610;2023-06-22T14:17:28;28.10;23.10
10294;DHT22;5192;50.328;7.610;2023-06-22T14:19:54;28.00;28.00
10294;DHT22;5192;50.328;7.610;2023-06-22T14:22:22;27.80;28.50
10294;DHT22;5192;50.328;7.610;2023-06-22T14:24:48;27.10;13.70
10294;DHT22;5192;50.328;7.610;2023-06-22T14:27:15;26.50;17.90
10294;DHT22;5192;50.328;7.610;2023-06-22T14:29:42;25.80;20.60
10294;DHT22;5192;50.328;7.610;2023-06-22T14:32:10;25.20;25.30
10294;DHT22;5192;50.328;7.610;2023-06-22T14:34:37;24.70;38.10
10294;DHT22;5192;50.328;7.610;2023-06-22T14:37:07;24.40;44.40
10294;DHT22;5192;50.328;7.610;2023-06-22T14:39:34;24.30;50.00
10294;DHT22;5192;50.328;7.610;2023-06-22T14:42:00;24.00;46.40
10294;DHT22;5192;50.328;7.610;2023-06-22T14:44:28;24.00;50.50
10294;DHT22;5192;50.328;7.610;2023-06-22T14:47:00;24.00;49.60
10294;DHT22;5192;50.328;7.610;2023-06-22T14:49:27;23.80;42.10
10294;DHT22;5192;50.328;7.610;2023-06-22T14:51:53;23.60;42.80
10294;DHT22;5192;50.328;7.610;2023-06-22T14:54:20;23.50;48.00
10294;DHT22;5192;50.328;7.610;2023-06-22T14:56:47;23.30;48.50
10294;DHT22;5192;50.328;7.610;2023-06-22T14:59:15;23.20;52.70
10294;DHT22;5192;50.328;7.610;2023-06-22T15:01:42;23.10;68.60
10294;DHT22;5192;50.328;7.610;2023-06-22T15:04:10;22.60;83.50
10294;DHT22;5192;50.328;7.610;2023-06-22T15:06:36;22.00;97.50
10294;DHT22;5192;50.328;7.610;2023-06-22T15:09:05;21.60;99.90
10294;DHT22;5192;50.328;7.610;2023-06-22T15:11:32;21.20;99.90
10294;DHT22;5192;50.328;7.610;2023-06-22T15:13:59;21.10;99.90
10294;DHT22;5192;50.328;7.610;2023-06-22T15:16:29;21.00;99.90
10294;DHT22;5192;50.328;7.610;2023-06-22T15:18:57;20.90;99.90
10294;DHT22;5192;50.328;7.610;2023-06-22T15:21:25;21.00;95.10
10294;DHT22;5192;50.328;7.610;2023-06-22T15:23:54;21.10;81.60
10294;DHT22;5192;50.328;7.610;2023-06-22T15:26:21;21.10;88.70
10294;DHT22;5192;50.328;7.610;2023-06-22T15:28:47;21.10;88.40
10294;DHT22;5192;50.328;7.610;2023-06-22T15:31:15;21.00;92.80
10294;DHT22;5192;50.328;7.610;2023-06-22T15:33:42;21.00;96.00
10294;DHT22;5192;50.328;7.610;2023-06-22T15:36:09;20.90;99.90
10294;DHT22;5192;50.328;7.610;2023-06-22T15:38:36;20.90;99.90
10294;DHT22;5192;50.328;7.610;2023-06-22T15:41:03;20.80;99.90
10294;DHT22;5192;50.328;7.610;2023-06-22T15:43:28;20.80;99.90
10294;DHT22;5192;50.328;7.610;2023-06-22T15:45:54;20.80;99.90
10294;DHT22;5192;50.328;7.610;2023-06-22T15:48:21;20.70;99.90
10294;DHT22;5192;50.328;7.610;2023-06-22T15:50:48;20.80;99.90
10294;DHT22;5192;50.328;7.610;2023-06-22T15:53:15;20.80;99.90
10294;DHT22;5192;50.328;7.610;2023-06-22T15:55:42;20.90;99.90
10294;DHT22;5192;50.328;7.610;2023-06-22T15:58:09;20.90;99.90
10294;DHT22;5192;50.328;7.610;2023-06-22T16:00:41;21.00;99.90